Time;durP1;ratioP1;P1;durP2;ratioP2;P2;SDS_P1;SDS_P2;PMS_P1;PMS_P2;Temp;Humidity;BMP_temperature;BMP_pressure;BME280_temperature;BME280_humidity;BME280_pressure;Samples;Min_cycle;Max_cycle;Signal;HPM_P1;HPM_P2
2023/06/29 00:00:23;;;;;;;5.30;3.45;;;;;;;11.87;100.00;100949.00;4977217;28;20050;-77
2023/06/29 00:02:50;;;;;;;3.72;2.78;;;;;;;11.92;100.00;100953.28;4972730;28;20038;-76
2023/06/29 00:05:18;;;;;;;4.60;3.22;;;;;;;11.97;100.00;100956.72;4950694;28;20049;-76
2023/06/29 00:07:45;;;;;;;4.05;3.00;;;;;;;11.91;100.00;100951.53;4968060;28;20050;-76
2023/06/29 00:10:13;;;;;;;4.50;3.65;;;;;;;11.83;100.00;100959.63;4954577;28;20053;-77
2023/06/29 00:12:40;;;;;;;4.68;3.10;;;;;;;11.78;100.00;100950.91;4968866;28;20055;-76
2023/06/29 00:15:07;;;;;;;4.20;2.97;;;;;;;11.75;100.00;100958.88;4985482;28;20047;-76
2023/06/29 00:17:34;;;;;;;3.92;2.83;;;;;;;11.74;100.00;100959.78;4964854;28;20047;-76
2023/06/29 00:20:02;;;;;;;3.72;2.80;;;;;;;11.76;100.00;100954.47;4970909;28;20043;-77
2023/06/29 00:22:29;;;;;;;4.78;3.10;;;;;;;11.82;100.00;100949.94;4967495;28;20038;-76
2023/06/29 00:24:56;;;;;;;3.92;2.72;;;;;;;11.89;100.00;100953.34;4987772;28;20039;-76
2023/06/29 00:27:24;;;;;;;6.15;2.75;;;;;;;11.81;100.00;100948.22;4977684;28;20038;-77
2023/06/29 00:29:51;;;;;;;5.95;3.05;;;;;;;11.73;100.00;100949.25;4980507;28;20403;-76
2023/06/29 00:32:17;;;;;;;4.93;2.53;;;;;;;11.69;100.00;100943.16;4967347;28;20042;-76
2023/06/29 00:34:45;;;;;;;4.93;2.85;;;;;;;11.67;100.00;100947.59;4969139;28;20047;-77
2023/06/29 00:37:11;;;;;;;4.65;3.22;;;;;;;11.55;100.00;100947.84;4985792;28;20081;-76
2023/06/29 00:39:39;;;;;;;4.07;3.00;;;;;;;11.44;100.00;100950.72;4991180;28;20474;-77
2023/06/29 00:42:06;;;;;;;4.22;2.78;;;;;;;11.39;100.00;100959.63;4962619;28;20136;-77
2023/06/29 00:44:32;;;;;;;6.03;3.20;;;;;;;11.48;100.00;100951.50;4983179;28;20066;-77
2023/06/29 00:46:59;;;;;;;3.72;2.78;;;;;;;11.45;100.00;100956.88;4960789;28;20497;-76
2023/06/29 00:49:27;;;;;;;3.95;3.15;;;;;;;11.37;100.00;100950.84;4980098;28;20047;-76
2023/06/29 00:51:54;;;;;;;4.50;3.20;;;;;;;11.50;100.00;100944.41;4960157;28;20042;-76
2023/06/29 00:54:21;;;;;;;3.88;3.00;;;;;;;11.51;100.00;100940.84;4971900;28;20494;-76
2023/06/29 00:56:48;;;;;;;4.90;3.53;;;;;;;11.53;100.00;100941.72;4970453;28;20133;-77
2023/06/29 00:59:15;;;;;;;4.68;3.03;;;;;;;11.56;100.00;100928.41;4959554;28;20094;-77
2023/06/29 01:01:43;;;;;;;4.50;3.20;;;;;;;11.53;100.00;100937.28;4968941;28;20122;-77
2023/06/29 01:04:17;;;;;;;4.63;3.30;;;;;;;11.37;100.00;100934.97;4969178;28;20070;-76
2023/06/29 01:06:54;;;;;;;5.25;3.05;;;;;;;11.14;100.00;100935.41;4948005;29;20501;-76
2023/06/29 01:09:21;;;;;;;4.72;3.33;;;;;;;11.02;100.00;100939.16;4948016;28;20413;-76
2023/06/29 01:11:49;;;;;;;4.68;3.10;;;;;;;11.02;100.00;100930.34;4972215;28;20066;-76
2023/06/29 01:14:15;;;;;;;6.15;3.25;;;;;;;11.06;100.00;100937.31;4968071;28;20066;-76
2023/06/29 01:16:42;;;;;;;3.75;2.95;;;;;;;11.08;100.00;100936.38;4930794;28;20050;-77
2023/06/29 01:19:11;;;;;;;4.30;2.80;;;;;;;11.08;100.00;100936.38;4975111;28;20043;-76
2023/06/29 01:21:49;;;;;;;5.18;2.72;;;;;;;11.09;100.00;100937.25;4963081;28;20047;-77
2023/06/29 01:24:16;;;;;;;4.15;3.13;;;;;;;11.05;100.00;100931.16;4961055;28;20043;-77
2023/06/29 01:26:43;;;;;;;3.22;2.85;;;;;;;11.05;100.00;100925.88;4992686;28;20042;-77
2023/06/29 01:29:10;;;;;;;5.00;3.22;;;;;;;11.13;100.00;100918.66;4969227;28;20410;-77
2023/06/29 01:31:36;;;;;;;4.25;3.20;;;;;;;11.13;100.00;100923.97;4972485;28;20038;-76
2023/06/29 01:34:03;;;;;;;4.80;2.70;;;;;;;11.11;100.00;100917.84;4974167;28;20077;-77
2023/06/29 01:36:34;;;;;;;3.47;3.00;;;;;;;11.00;100.00;100915.34;4988753;28;20049;-77
2023/06/29 01:39:06;;;;;;;4.57;3.20;;;;;;;10.93;100.00;100919.03;4973273;28;20502;-76
2023/06/29 01:41:36;;;;;;;5.20;3.05;;;;;;;10.98;100.00;100922.47;4973296;28;20038;-77
2023/06/29 01:44:05;;;;;;;5.20;3.38;;;;;;;10.94;100.00;100919.91;4969459;28;20081;-76
2023/06/29 01:46:32;;;;;;;6.43;3.53;;;;;;;10.87;100.00;100924.44;4943737;28;20042;-76
2023/06/29 01:48:59;;;;;;;3.55;3.05;;;;;;;10.80;100.00;100917.50;4939053;28;20051;-77
2023/06/29 01:51:25;;;;;;;4.05;2.70;;;;;;;10.84;100.00;100915.66;4980716;28;20039;-76
2023/06/29 01:53:53;;;;;;;6.03;3.38;;;;;;;10.92;100.00;100911.97;4969543;28;20038;-75
2023/06/29 01:56:20;;;;;;;4.18;3.40;;;;;;;10.84;100.00;100911.25;4951418;29;20047;-76
2023/06/29 01:58:46;;;;;;;5.65;3.13;;;;;;;10.81;100.00;100919.25;4956527;28;20118;-76
2023/06/29 02:01:13;;;;;;;5.22;3.67;;;;;;;10.75;100.00;100914.06;4956587;28;20043;-77
2023/06/29 02:03:40;;;;;;;4.18;3.13;;;;;;;10.70;100.00;100910.63;4962275;28;20506;-76
2023/06/29 02:06:07;;;;;;;7.53;3.67;;;;;;;10.71;100.00;100912.38;4949789;29;20047;-76
2023/06/29 02:08:34;;;;;;;4.78;3.28;;;;;;;10.74;100.00;100912.31;4965835;28;20141;-78
2023/06/29 02:11:01;;;;;;;4.85;3.28;;;;;;;10.68;100.00;100910.66;4958713;28;20039;-76
2023/06/29 02:13:27;;;;;;;5.40;3.10;;;;;;;10.71;100.00;100909.72;4947515;28;20574;-76
2023/06/29 02:15:54;;;;;;;5.28;3.53;;;;;;;10.69;100.00;100916.81;4954399;28;20093;-77
2023/06/29 02:18:21;;;;;;;4.45;3.72;;;;;;;10.62;100.00;100918.69;4977542;28;20043;-77
2023/06/29 02:20:47;;;;;;;5.30;3.55;;;;;;;10.56;100.00;100917.91;4951445;28;20126;-77
2023/06/29 02:23:14;;;;;;;3.63;3.20;;;;;;;10.47;100.00;100915.41;4982253;28;20027;-77
2023/06/29 02:25:41;;;;;;;5.50;3.08;;;;;;;10.54;100.00;100907.38;4967973;28;20470;-76
2023/06/29 02:28:08;;;;;;;5.47;3.40;;;;;;;10.60;100.00;100906.41;4962341;28;20046;-78
2023/06/29 02:30:34;;;;;;;6.15;3.20;;;;;;;10.59;100.00;100905.50;4968783;28;20625;-76
2023/06/29 02:33:01;;;;;;;5.65;2.95;;;;;;;10.54;100.00;100906.50;4967289;28;20121;-77
2023/06/29 02:35:28;;;;;;;4.20;3.00;;;;;;;10.44;100.00;100908.41;4963231;28;20042;-77
2023/06/29 02:37:55;;;;;;;5.30;3.33;;;;;;;10.30;100.00;100913.03;4960403;28;20078;-77
2023/06/29 02:40:21;;;;;;;3.42;2.92;;;;;;;10.28;100.00;100906.91;4953418;28;20043;-77
2023/06/29 02:42:48;;;;;;;5.55;3.40;;;;;;;10.30;100.00;100913.03;4977830;28;20546;-77
2023/06/29 02:45:15;;;;;;;4.40;3.15;;;;;;;10.23;100.00;100917.53;4984668;28;20540;-77
2023/06/29 02:47:41;;;;;;;3.95;3.17;;;;;;;10.20;100.00;100909.63;4959917;28;20049;-77
2023/06/29 02:50:08;;;;;;;5.85;3.47;;;;;;;10.25;100.00;100910.44;4966878;28;20035;-77
2023/06/29 02:52:35;;;;;;;3.63;3.28;;;;;;;10.35;100.00;100901.53;4942427;29;20098;-77
2023/06/29 02:55:02;;;;;;;5.38;3.22;;;;;;;10.35;100.00;100901.53;4958296;28;20053;-77
2023/06/29 02:57:29;;;;;;;4.47;3.28;;;;;;;10.26;100.00;100893.75;4942421;29;20067;-76
2023/06/29 02:59:56;;;;;;;5.72;3.15;;;;;;;10.27;100.00;100897.25;4943582;28;20090;-76
2023/06/29 03:02:22;;;;;;;3.80;2.67;;;;;;;10.27;100.00;100899.91;4997327;28;20088;-78
2023/06/29 03:04:49;;;;;;;4.85;3.17;;;;;;;10.24;100.00;100897.28;4957574;28;20047;-77
2023/06/29 03:07:16;;;;;;;4.78;3.10;;;;;;;10.22;100.00;100897.31;4984383;28;20639;-77
2023/06/29 03:09:42;;;;;;;4.55;3.20;;;;;;;10.25;100.00;100901.66;4979924;28;20043;-77
2023/06/29 03:12:09;;;;;;;3.58;2.92;;;;;;;10.25;100.00;100899.88;4988475;28;20043;-77
2023/06/29 03:14:36;;;;;;;5.38;3.55;;;;;;;10.24;100.00;100902.56;4966952;28;20039;-78
2023/06/29 03:17:03;;;;;;;6.47;3.33;;;;;;;10.24;100.00;100910.47;4973499;28;20030;-77
2023/06/29 03:19:30;;;;;;;4.97;3.13;;;;;;;10.21;100.00;100906.09;4985372;28;20047;-76
2023/06/29 03:21:56;;;;;;;4.60;3.20;;;;;;;10.22;100.00;100907.88;4991969;28;20038;-76
2023/06/29 03:24:23;;;;;;;3.92;3.10;;;;;;;10.21;100.00;100905.22;4975358;28;20045;-76
2023/06/29 03:26:50;;;;;;;5.70;3.00;;;;;;;10.21;100.00;100911.38;4988367;28;20042;-76
2023/06/29 03:29:19;;;;;;;3.85;2.90;;;;;;;10.20;100.00;100912.28;4969922;28;20038;-76
2023/06/29 03:31:46;;;;;;;4.28;2.70;;;;;;;10.22;100.00;100909.59;4987956;28;20038;-76
2023/06/29 03:34:13;;;;;;;4.35;2.83;;;;;;;10.23;100.00;100908.75;4963089;28;20053;-76
2023/06/29 03:36:40;;;;;;;5.80;3.40;;;;;;;10.26;100.00;100906.06;4963673;28;20541;-76
2023/06/29 03:39:06;;;;;;;4.05;3.20;;;;;;;10.30;100.00;100910.41;4969356;28;20049;-76
2023/06/29 03:41:33;;;;;;;3.78;2.75;;;;;;;10.34;100.00;100910.34;4965521;28;20047;-76
2023/06/29 03:44:00;;;;;;;5.80;3.17;;;;;;;10.37;100.00;100917.34;4990751;28;20042;-76
2023/06/29 03:46:26;;;;;;;3.60;2.90;;;;;;;10.43;100.00;100914.59;4964668;28;20149;-76
2023/06/29 03:48:53;;;;;;;5.68;3.00;;;;;;;10.41;100.00;100911.97;4971516;28;20034;-76
2023/06/29 03:51:20;;;;;;;3.67;2.72;;;;;;;10.37;100.00;100914.69;4980888;28;20383;-76
2023/06/29 03:53:46;;;;;;;3.97;2.90;;;;;;;10.37;100.00;100904.13;4970855;28;20134;-76
2023/06/29 03:56:13;;;;;;;3.90;3.08;;;;;;;10.40;100.00;100907.56;4974526;28;20039;-76
2023/06/29 03:58:40;;;;;;;5.05;2.55;;;;;;;10.43;100.00;100911.97;4989060;28;20038;-76
2023/06/29 04:01:06;;;;;;;4.78;3.03;;;;;;;10.43;100.00;100909.31;4989588;28;20049;-76
2023/06/29 04:03:33;;;;;;;4.18;2.88;;;;;;;10.42;100.00;100913.72;4976685;28;20046;-76
2023/06/29 04:06:00;;;;;;;3.28;2.42;;;;;;;10.42;100.00;100915.47;4977005;28;20042;-76
2023/06/29 04:08:27;;;;;;;4.53;3.03;;;;;;;10.47;100.00;100918.94;4966575;28;20536;-76
2023/06/29 04:10:54;;;;;;;5.60;3.47;;;;;;;10.52;100.00;100917.09;4973437;28;20122;-76
2023/06/29 04:13:21;;;;;;;3.97;2.80;;;;;;;10.62;100.00;100926.63;4943915;28;20035;-76
2023/06/29 04:15:47;;;;;;;4.63;2.75;;;;;;;10.74;100.00;100914.94;4971105;28;20038;-76
2023/06/29 04:18:14;;;;;;;3.70;2.80;;;;;;;10.84;100.00;100908.59;4955033;28;20125;-76
2023/06/29 04:20:41;;;;;;;4.80;2.75;;;;;;;10.95;100.00;100911.94;4986796;28;20081;-76
2023/06/29 04:23:07;;;;;;;5.03;3.00;;;;;;;11.07;100.00;100912.63;4959469;28;20042;-76
2023/06/29 04:25:34;;;;;;;4.50;3.22;;;;;;;11.16;100.00;100913.31;4968606;28;20113;-76
2023/06/29 04:28:01;;;;;;;4.70;3.10;;;;;;;11.25;100.00;100913.13;4989353;28;20049;-76
2023/06/29 04:30:28;;;;;;;4.15;3.45;;;;;;;11.33;100.00;100904.19;4970124;28;20043;-76
2023/06/29 04:32:59;;;;;;;6.30;3.17;;;;;;;11.39;100.00;100902.28;4965696;28;20043;-76
2023/06/29 04:35:26;;;;;;;4.38;3.15;;;;;;;11.46;100.00;100900.41;4983852;28;20064;-76
2023/06/29 04:37:53;;;;;;;5.43;3.58;;;;;;;11.55;100.00;100909.03;4982523;28;20510;-76
2023/06/29 04:40:19;;;;;;;5.22;3.30;;;;;;;11.71;100.00;100906.94;4985342;28;20038;-76
2023/06/29 04:42:47;;;;;;;4.68;3.33;;;;;;;11.80;100.00;100906.75;4965028;28;20150;-76
2023/06/29 04:45:19;;;;;;;3.58;3.08;;;;;;;11.81;100.00;100905.00;4978624;28;20045;-76
2023/06/29 04:47:49;;;;;;;3.75;2.58;;;;;;;11.94;100.00;100902.94;4975375;28;20043;-76
2023/06/29 04:50:24;;;;;;;5.43;3.10;;;;;;;11.99;100.00;100909.00;4976140;28;20043;-76
2023/06/29 04:52:55;;;;;;;3.92;3.08;;;;;;;12.12;100.00;100907.84;4961416;28;20130;-76
2023/06/29 04:55:22;;;;;;;4.97;3.10;;;;;;;12.14;100.00;100905.16;4964629;28;20038;-76
2023/06/29 04:57:49;;;;;;;4.35;3.33;;;;;;;12.13;100.00;100912.22;4962800;28;20039;-76
2023/06/29 05:00:16;;;;;;;4.13;3.13;;;;;;;12.14;100.00;100910.44;4951504;28;20057;-76
2023/06/29 05:02:43;;;;;;;5.82;2.90;;;;;;;12.19;100.00;100906.78;4987972;28;20318;-76
2023/06/29 05:05:11;;;;;;;4.15;2.88;;;;;;;12.26;100.00;100916.31;4959738;28;20057;-76
2023/06/29 05:07:38;;;;;;;3.85;2.92;;;;;;;12.38;100.00;100918.69;4983446;28;20045;-76
2023/06/29 05:10:05;;;;;;;4.97;3.88;;;;;;;12.56;100.00;100913.84;4985153;28;20042;-76
2023/06/29 05:12:32;;;;;;;5.68;3.17;;;;;;;12.75;100.00;100904.53;4957217;28;20457;-76
2023/06/29 05:14:59;;;;;;;4.55;3.42;;;;;;;12.94;100.00;100905.78;4959513;28;20042;-76
2023/06/29 05:17:25;;;;;;;3.80;3.22;;;;;;;13.14;100.00;100907.06;4973024;28;20137;-76
2023/06/29 05:19:52;;;;;;;4.18;3.47;;;;;;;13.49;100.00;100909.63;4980056;28;20069;-76
2023/06/29 05:22:19;;;;;;;5.13;3.83;;;;;;;13.79;100.00;100907.00;4983256;28;20487;-76
2023/06/29 05:24:46;;;;;;;4.70;3.65;;;;;;;14.00;100.00;100901.03;4983612;28;20125;-76
2023/06/29 05:27:12;;;;;;;4.32;3.53;;;;;;;14.03;100.00;100892.94;4977991;28;20459;-76
2023/06/29 05:29:39;;;;;;;4.60;3.33;;;;;;;14.08;100.00;100895.47;4961933;28;20078;-76
2023/06/29 05:32:06;;;;;;;3.35;2.85;;;;;;;14.09;100.00;100895.44;4976685;28;20556;-77
2023/06/29 05:34:32;;;;;;;3.58;3.00;;;;;;;14.14;100.00;100897.97;4970415;28;20058;-76
2023/06/29 05:36:59;;;;;;;3.50;3.10;;;;;;;14.21;100.00;100898.59;4984068;28;20141;-76
2023/06/29 05:39:27;;;;;;;4.28;3.55;;;;;;;14.41;100.00;100890.00;4965874;28;20077;-77
2023/06/29 05:41:54;;;;;;;4.03;3.53;;;;;;;15.07;100.00;100891.34;4958197;28;20042;-76
2023/06/29 05:44:20;;;;;;;4.60;3.70;;;;;;;17.06;100.00;100889.72;4980668;28;20045;-76
2023/06/29 05:46:47;;;;;;;5.15;3.35;;;;;;;19.48;100.00;100881.53;4984969;28;20039;-76
2023/06/29 05:49:14;;;;;;;4.20;3.80;;;;;;;21.72;80.31;100879.19;4989816;28;20433;-77
2023/06/29 05:51:42;;;;;;;4.43;2.97;;;;;;;23.77;65.63;100876.97;4963885;28;20130;-76
2023/06/29 05:54:08;;;;;;;4.22;3.83;;;;;;;25.05;56.62;100880.03;4974297;28;20655;-77
2023/06/29 05:56:35;;;;;;;4.28;3.85;;;;;;;25.45;55.73;100875.06;4983646;28;20042;-77
2023/06/29 05:59:02;;;;;;;3.97;3.58;;;;;;;25.61;53.67;100871.16;4970560;28;20134;-77
2023/06/29 06:01:29;;;;;;;5.22;3.20;;;;;;;27.11;50.82;100882.13;4971084;28;20047;-76
2023/06/29 06:03:56;;;;;;;3.25;2.95;;;;;;;27.97;46.43;100874.56;4984559;28;20039;-78
2023/06/29 06:06:23;;;;;;;4.50;4.10;;;;;;;28.00;45.30;100874.31;4957036;28;20138;-77
2023/06/29 06:08:50;;;;;;;3.67;3.38;;;;;;;27.65;46.46;100874.72;4974900;28;20059;-77
2023/06/29 06:11:16;;;;;;;4.70;3.30;;;;;;;27.14;47.74;100875.56;4974222;28;20042;-77
2023/06/29 06:13:44;;;;;;;6.10;4.10;;;;;;;26.15;50.10;100873.97;4975477;28;20039;-77
2023/06/29 06:16:11;;;;;;;5.22;3.85;;;;;;;25.68;52.17;100866.97;4954872;28;20047;-78
2023/06/29 06:18:37;;;;;;;4.72;3.95;;;;;;;25.11;54.29;100866.03;4961440;28;20053;-77
2023/06/29 06:21:04;;;;;;;4.10;3.70;;;;;;;24.75;56.36;100866.16;4991084;28;20516;-77
2023/06/29 06:23:31;;;;;;;3.92;3.42;;;;;;;24.49;55.96;100866.31;4987543;28;20610;-77
2023/06/29 06:26:00;;;;;;;5.50;4.53;;;;;;;24.24;57.73;100861.84;4965707;28;20038;-77
2023/06/29 06:28:27;;;;;;;4.50;4.10;;;;;;;23.78;57.34;100867.91;4959878;28;20713;-77
2023/06/29 06:30:54;;;;;;;5.40;4.10;;;;;;;23.82;60.45;100866.72;4968691;28;20502;-77
2023/06/29 06:33:20;;;;;;;4.57;4.18;;;;;;;23.74;61.43;100865.56;4958773;28;20042;-77
2023/06/29 06:35:47;;;;;;;5.35;4.32;;;;;;;23.63;61.90;100862.75;4966136;28;20158;-77
2023/06/29 06:38:14;;;;;;;4.43;3.72;;;;;;;23.62;62.43;100859.19;4966524;28;20450;-77
2023/06/29 06:40:41;;;;;;;8.02;4.35;;;;;;;23.65;59.54;100855.44;4991162;28;20482;-77
2023/06/29 06:43:08;;;;;;;6.32;3.97;;;;;;;23.74;59.17;100860.16;4980669;28;20043;-77
2023/06/29 06:45:35;;;;;;;6.25;3.97;;;;;;;23.79;59.44;100857.97;4980052;28;20053;-77
2023/06/29 06:48:01;;;;;;;6.15;3.70;;;;;;;23.77;59.04;100865.31;4968582;28;20126;-76
2023/06/29 06:50:28;;;;;;;5.05;3.70;;;;;;;23.75;58.93;100862.75;4966151;28;20039;-76
2023/06/29 06:52:55;;;;;;;4.85;3.45;;;;;;;23.88;58.86;100868.13;4978538;28;20035;-77
2023/06/29 06:55:22;;;;;;;4.80;3.78;;;;;;;23.96;59.09;100859.44;4991037;28;20039;-77
2023/06/29 06:57:49;;;;;;;3.80;3.22;;;;;;;24.05;58.49;100862.34;4982902;28;20050;-77
2023/06/29 07:00:16;;;;;;;5.20;3.90;;;;;;;24.01;58.80;100862.69;4948253;28;20129;-77
2023/06/29 07:02:43;;;;;;;3.95;3.30;;;;;;;23.99;57.83;100860.09;4971443;28;20089;-77
2023/06/29 07:05:10;;;;;;;3.55;3.25;;;;;;;24.05;58.19;100853.41;4975269;28;20601;-77
2023/06/29 07:07:37;;;;;;;4.20;2.85;;;;;;;24.14;56.35;100858.97;4963422;28;20047;-77
2023/06/29 07:10:04;;;;;;;4.63;3.38;;;;;;;24.23;56.54;100848.47;4977018;28;20035;-77
2023/06/29 07:12:31;;;;;;;4.10;3.20;;;;;;;24.30;54.54;100852.41;4978290;28;20047;-77
2023/06/29 07:14:57;;;;;;;4.85;3.17;;;;;;;24.38;54.03;100856.31;4975356;28;20045;-77
2023/06/29 07:17:24;;;;;;;4.28;3.28;;;;;;;24.53;54.90;100850.72;4973759;28;20111;-77
2023/06/29 07:19:51;;;;;;;3.83;2.65;;;;;;;24.68;55.01;100846.84;4983841;28;20494;-78
2023/06/29 07:22:20;;;;;;;3.95;3.20;;;;;;;24.85;54.09;100854.53;4954931;28;20541;-77
2023/06/29 07:24:50;;;;;;;3.42;3.10;;;;;;;24.99;53.56;100848.91;4961350;28;20038;-77
2023/06/29 07:27:17;;;;;;;5.50;3.30;;;;;;;25.11;51.50;100840.84;4966660;28;20047;-77
2023/06/29 07:29:46;;;;;;;3.67;2.83;;;;;;;25.19;52.70;100844.69;4974389;28;20039;-77
2023/06/29 07:32:12;;;;;;;3.50;2.53;;;;;;;25.22;52.04;100847.16;4986012;28;20041;-77
2023/06/29 07:34:39;;;;;;;3.10;2.80;;;;;;;25.32;50.44;100838.31;4955513;28;20058;-77
2023/06/29 07:37:07;;;;;;;2.85;2.53;;;;;;;25.36;51.17;100843.34;4964929;28;20071;-77
2023/06/29 07:39:34;;;;;;;4.43;2.50;;;;;;;25.32;49.55;100836.47;4966648;28;20163;-77
2023/06/29 07:42:00;;;;;;;6.60;2.75;;;;;;;25.37;49.35;100838.78;4974098;28;20702;-76
2023/06/29 07:44:28;;;;;;;2.97;2.53;;;;;;;25.45;50.36;100833.63;4971453;28;20090;-77
2023/06/29 07:46:55;;;;;;;4.18;2.90;;;;;;;25.32;51.26;100835.63;4946054;28;20143;-76
2023/06/29 07:49:22;;;;;;;3.80;3.20;;;;;;;25.37;51.90;100826.13;4959008;28;20034;-77
2023/06/29 07:51:49;;;;;;;3.10;2.83;;;;;;;25.37;50.99;100834.25;4981155;28;20537;-76
2023/06/29 07:54:16;;;;;;;3.85;3.55;;;;;;;25.07;52.97;100831.28;4969648;28;20034;-77
2023/06/29 07:56:43;;;;;;;4.28;3.50;;;;;;;25.48;54.32;100828.00;4991771;28;20050;-77
2023/06/29 07:59:13;;;;;;;5.13;3.50;;;;;;;25.61;53.44;100830.56;4981052;28;20039;-77
2023/06/29 08:01:39;;;;;;;3.42;3.00;;;;;;;25.78;53.00;100827.38;4958259;28;20050;-76
2023/06/29 08:04:07;;;;;;;4.15;2.83;;;;;;;25.88;52.77;100820.22;4989268;28;20062;-77
2023/06/29 08:06:34;;;;;;;3.13;2.80;;;;;;;25.88;53.14;100822.94;4982384;28;20037;-76
2023/06/29 08:09:03;;;;;;;4.10;2.90;;;;;;;25.89;51.91;100829.19;4991856;28;20042;-77
2023/06/29 08:11:31;;;;;;;4.05;3.03;;;;;;;25.94;51.91;100829.69;4993049;28;20049;-78
2023/06/29 08:13:57;;;;;;;4.07;2.35;;;;;;;25.72;51.45;100833.28;4974232;28;20069;-77
2023/06/29 08:16:24;;;;;;;3.63;2.15;;;;;;;24.99;49.54;100840.81;4989951;28;20039;-77
2023/06/29 08:18:51;;;;;;;3.53;2.00;;;;;;;24.95;50.71;100833.03;4986591;28;20058;-78
2023/06/29 08:21:18;;;;;;;2.83;1.92;;;;;;;24.58;52.24;100838.59;4982867;28;20047;-78
2023/06/29 08:23:46;;;;;;;2.30;1.70;;;;;;;24.66;52.63;100835.31;4960967;28;20042;-77
2023/06/29 08:26:13;;;;;;;2.22;1.70;;;;;;;24.51;48.70;100836.47;4970143;28;20121;-78
2023/06/29 08:28:40;;;;;;;2.05;1.60;;;;;;;24.52;51.59;100825.56;4993950;28;20042;-77
2023/06/29 08:31:06;;;;;;;5.55;2.10;;;;;;;24.27;48.54;100828.34;4985653;28;20102;-77
2023/06/29 08:33:33;;;;;;;3.00;1.90;;;;;;;24.23;51.47;100838.53;4990503;28;20041;-77
2023/06/29 08:36:00;;;;;;;5.18;1.80;;;;;;;24.32;53.05;100839.72;4994213;28;20043;-77
2023/06/29 08:38:27;;;;;;;2.10;1.63;;;;;;;24.39;52.48;100825.63;4988491;28;20495;-78
2023/06/29 08:40:56;;;;;;;2.05;1.88;;;;;;;24.60;51.94;100833.06;4991304;28;20097;-77
2023/06/29 08:43:23;;;;;;;1.73;1.58;;;;;;;24.69;51.32;100821.56;4979816;28;20133;-77
2023/06/29 08:45:50;;;;;;;2.33;1.80;;;;;;;24.90;53.52;100829.84;4994055;28;20442;-78
2023/06/29 08:48:18;;;;;;;2.67;1.70;;;;;;;24.78;51.06;100828.94;4976775;28;20137;-77
2023/06/29 08:50:54;;;;;;;2.47;2.10;;;;;;;24.66;48.58;100830.75;4980142;28;20046;-77
2023/06/29 08:53:20;;;;;;;2.45;2.25;;;;;;;24.91;51.38;100826.19;4985735;28;20046;-77
2023/06/29 08:55:48;;;;;;;2.30;2.10;;;;;;;25.08;50.66;100814.06;4988269;28;20053;-77
2023/06/29 08:58:15;;;;;;;2.35;1.88;;;;;;;25.44;53.18;100812.97;4961846;28;20453;-77
2023/06/29 09:00:42;;;;;;;2.10;1.90;;;;;;;25.46;46.76;100813.72;4988505;28;20038;-77
2023/06/29 09:03:10;;;;;;;2.67;1.83;;;;;;;25.91;48.49;100819.13;4990753;28;20125;-77
2023/06/29 09:05:37;;;;;;;2.40;2.20;;;;;;;25.99;47.37;100827.47;4989050;28;20040;-76
2023/06/29 09:08:04;;;;;;;4.22;2.10;;;;;;;25.99;47.48;100819.38;5011388;28;20038;-77
2023/06/29 09:10:32;;;;;;;2.13;1.92;;;;;;;25.85;48.72;100822.34;4991197;28;20100;-77
2023/06/29 09:12:59;;;;;;;3.33;2.00;;;;;;;25.60;47.10;100824.28;4976911;28;20038;-78
2023/06/29 09:15:27;;;;;;;2.75;2.28;;;;;;;25.43;47.03;100817.53;4974763;28;20035;-76
2023/06/29 09:17:54;;;;;;;2.05;1.80;;;;;;;25.33;49.57;100821.97;4994007;28;20047;-77
2023/06/29 09:20:21;;;;;;;3.33;1.80;;;;;;;25.27;48.73;100827.84;4994092;28;20129;-78
2023/06/29 09:22:52;;;;;;;3.88;2.60;;;;;;;25.35;49.79;100830.81;4971152;28;20034;-77
2023/06/29 09:25:19;;;;;;;2.33;2.10;;;;;;;25.24;48.26;100826.25;4974832;28;20038;-79
2023/06/29 09:28:06;;;;;;;3.33;2.45;;;;;;;25.15;50.60;100828.84;4994799;28;20065;-76
2023/06/29 09:30:38;;;;;;;3.85;2.50;;;;;;;25.15;51.47;100824.28;5002166;28;20053;-77
2023/06/29 09:33:12;;;;;;;4.40;2.55;;;;;;;25.34;52.43;100828.22;4968270;28;20038;-77
2023/06/29 09:35:51;;;;;;;2.72;2.08;;;;;;;25.33;50.48;100823.81;4971625;28;20521;-77
2023/06/29 09:38:18;;;;;;;3.78;2.88;;;;;;;25.14;50.12;100817.16;4976494;28;20072;-78
2023/06/29 09:40:47;;;;;;;4.20;2.97;;;;;;;25.13;52.06;100819.97;4971366;28;20138;-77
2023/06/29 09:43:18;;;;;;;3.05;2.47;;;;;;;25.45;49.53;100803.88;4976140;28;20034;-78
2023/06/29 09:45:45;;;;;;;5.00;2.25;;;;;;;25.54;50.52;100813.97;4992835;28;20039;-77
2023/06/29 09:48:13;;;;;;;3.85;2.47;;;;;;;25.72;51.64;100807.06;4991395;28;20045;-77
2023/06/29 09:50:50;;;;;;;4.43;3.10;;;;;;;25.58;48.29;100804.63;4986093;28;20034;-78
2023/06/29 09:53:27;;;;;;;2.90;2.60;;;;;;;25.68;49.83;100805.59;4976067;28;20139;-77
2023/06/29 09:55:56;;;;;;;2.83;2.30;;;;;;;25.66;51.42;100807.56;4975327;28;20045;-78
2023/06/29 09:58:23;;;;;;;3.35;2.42;;;;;;;25.59;49.93;100809.06;4978390;28;20034;-77
2023/06/29 10:00:50;;;;;;;3.03;2.03;;;;;;;25.35;50.81;100802.91;4978383;28;20035;-76
2023/06/29 10:03:17;;;;;;;2.97;2.30;;;;;;;25.25;48.78;100806.34;4995537;28;20097;-77
2023/06/29 10:05:44;;;;;;;2.63;2.42;;;;;;;25.20;51.01;100805.84;4996097;28;20062;-77
2023/06/29 10:08:12;;;;;;;3.28;2.55;;;;;;;24.61;50.71;100805.06;4958225;28;20553;-77
2023/06/29 10:10:39;;;;;;;3.53;2.50;;;;;;;24.92;51.65;100800.88;4949601;28;20603;-77
2023/06/29 10:13:06;;;;;;;3.15;2.15;;;;;;;25.08;52.65;100797.84;4993705;28;20066;-77
2023/06/29 10:15:35;;;;;;;2.90;2.38;;;;;;;25.18;52.20;100802.41;4961206;28;20094;-77
2023/06/29 10:18:10;;;;;;;2.97;2.55;;;;;;;25.15;50.91;100799.94;4989973;28;20085;-77
2023/06/29 10:20:40;;;;;;;2.30;2.10;;;;;;;25.11;52.76;100805.72;4988474;28;20046;-78
2023/06/29 10:23:07;;;;;;;3.05;2.15;;;;;;;24.94;51.45;100797.06;4975011;28;20081;-78
2023/06/29 10:25:37;;;;;;;3.60;2.00;;;;;;;24.84;52.72;100796.06;4992498;28;20034;-77
2023/06/29 10:28:04;;;;;;;4.05;2.10;;;;;;;24.70;52.89;100797.13;4991625;28;20042;-77
2023/06/29 10:30:44;;;;;;;4.35;2.38;;;;;;;24.65;51.84;100798.47;4975226;28;20042;-78
2023/06/29 10:33:11;;;;;;;5.18;2.53;;;;;;;24.52;53.29;100793.13;4990630;28;20045;-78
2023/06/29 10:35:39;;;;;;;4.10;2.20;;;;;;;24.63;54.71;100790.47;4975827;28;20034;-78
2023/06/29 10:38:13;;;;;;;3.50;2.45;;;;;;;24.61;53.49;100792.44;4974244;28;20046;-78
2023/06/29 10:40:48;;;;;;;3.67;2.83;;;;;;;24.55;53.79;100792.03;4974303;28;20092;-78
2023/06/29 10:43:15;;;;;;;3.63;2.55;;;;;;;24.41;51.20;100790.41;4986149;28;20042;-77
2023/06/29 10:45:42;;;;;;;3.85;2.47;;;;;;;24.46;54.34;100788.19;4977763;28;20030;-78
2023/06/29 10:48:10;;;;;;;4.00;2.70;;;;;;;24.48;51.31;100780.84;4993101;28;20042;-77
2023/06/29 10:50:46;;;;;;;3.20;2.25;;;;;;;24.49;51.36;100781.72;4976855;28;20174;-78
2023/06/29 10:53:14;;;;;;;3.22;2.22;;;;;;;24.64;53.59;100775.16;4975775;28;20049;-78
2023/06/29 10:55:59;;;;;;;6.40;2.60;;;;;;;24.70;54.38;100780.91;4988890;28;20524;-78
2023/06/29 10:58:30;;;;;;;4.45;2.33;;;;;;;24.66;49.74;100776.72;4988516;28;20039;-78
2023/06/29 11:00:57;;;;;;;3.45;1.90;;;;;;;24.71;50.24;100771.81;4976008;28;20049;-77
2023/06/29 11:03:24;;;;;;;3.25;2.20;;;;;;;24.82;49.63;100771.00;4977785;28;20072;-77
2023/06/29 11:05:52;;;;;;;3.95;2.78;;;;;;;24.88;52.99;100770.50;4978130;28;20429;-77
2023/06/29 11:08:23;;;;;;;2.55;2.28;;;;;;;24.83;50.33;100770.00;4994419;28;20093;-78
2023/06/29 11:10:51;;;;;;;4.47;2.80;;;;;;;24.97;53.03;100767.09;4978788;28;20042;-77
2023/06/29 11:13:19;;;;;;;6.00;3.30;;;;;;;24.82;49.20;100762.03;4992846;28;20038;-78
2023/06/29 11:15:54;;;;;;;4.28;3.10;;;;;;;24.91;49.99;100766.72;4987949;28;20066;-78
2023/06/29 11:18:21;;;;;;;3.90;3.50;;;;;;;25.00;52.21;100763.28;4944518;28;20588;-76
2023/06/29 11:20:48;;;;;;;5.50;3.40;;;;;;;24.99;54.60;100762.44;4977310;28;20059;-77
2023/06/29 11:23:16;;;;;;;4.10;3.60;;;;;;;25.03;55.05;100762.19;4961450;28;20556;-77